Estación Meteorológica Peña el Pijo (Robertgarden) [ 09/25/17 15:15:34 CEST ]

Fecha Hora Presion(HPa) Temp (°C) Humedad % Rocio (°C) Viento ( m/s) Direccion Lluvia 1Hora(mm) Lluvia 24H(mm) LLuvia Total(mm)
2017-May-25 01:01:35 1012.100 12.9 60 5.3         1390.83
2017-May-25 02:01:48 1011.600 11.4 64 4.8         1390.83
2017-May-25 03:01:36 1011.200 10.3 69 4.9         1390.83
2017-May-25 04:01:44 1011.000 9.8 71 4.8         1390.83
2017-May-25 05:03:42 1010.500 9.3 73 4.7         1390.83
2017-May-25 06:01:36 1010.300 8.8 75 4.6         1390.83
2017-May-25 07:01:10 1010.400 8.6 76 4.6         1390.83
2017-May-25 08:04:00 1010.200 10.9 77 7.0         1390.83
2017-May-25 09:01:46 1010.100 17.3 59 9.2         1390.83
2017-May-25 10:01:40 1010.000 23.4 44 10.4         1390.83
2017-May-25 11:01:44 1009.800 26.9 33 9.2         1390.83
2017-May-25 12:01:42 1009.600 30.3 29 10.2         1390.83
2017-May-25 13:01:41 1009.300 30.9 28 10.1         1390.83
2017-May-25 14:01:52 1008.900 31.3 26 9.3         1390.83
2017-May-25 15:01:48 1008.300 32.5 24 9.1         1390.83
2017-May-25 16:01:53 1008.500 26.9 30 7.9         1390.83
2017-May-25 17:01:56 1008.800 23.8 37 8.2         1390.83
2017-May-25 18:01:52 1009.200 19.8 49 8.8         1390.83
2017-May-25 19:01:47 1008.200 18.0 58 9.6         1390.83
2017-May-25 20:01:35 1008.200 18.6 60 10.7         1390.83
2017-May-25 21:01:44 1008.900 17.3 64 10.4         1390.83
2017-May-25 22:01:44 1009.200 15.4 70 10.0         1390.83
2017-May-25 23:01:56 1009.700 14.9 72 9.9         1390.83

Temperatura Máxima:32°    Temperatura Mínima:
Presión Máxima:1012.100 Hpa    Presión Mínima:1008.200 Hpa


Volver